sensor_id;sensor_type;location;lat;lon;timestamp;P1;durP1;ratioP1;P2;durP2;ratioP2
17528;SDS011;8882;53.192;8.184;2022-10-15T07:04:23;42.63;;;15.13;;
17528;SDS011;8882;53.192;8.184;2022-10-15T07:06:49;47.67;;;16.43;;
17528;SDS011;8882;53.192;8.184;2022-10-15T07:09:14;45.93;;;14.73;;
17528;SDS011;8882;53.192;8.184;2022-10-15T07:11:40;45.40;;;15.83;;
17528;SDS011;8882;53.192;8.184;2022-10-15T07:14:06;63.07;;;17.83;;
17528;SDS011;8882;53.192;8.184;2022-10-15T07:16:31;42.43;;;16.47;;
17528;SDS011;8882;53.192;8.184;2022-10-15T07:18:57;49.20;;;17.43;;
17528;SDS011;8882;53.192;8.184;2022-10-15T07:21:22;50.97;;;16.00;;
17528;SDS011;8882;53.192;8.184;2022-10-15T07:23:48;49.43;;;16.40;;
17528;SDS011;8882;53.192;8.184;2022-10-15T07:26:14;47.17;;;16.30;;
17528;SDS011;8882;53.192;8.184;2022-10-15T07:28:39;49.10;;;16.47;;
17528;SDS011;8882;53.192;8.184;2022-10-15T07:31:05;48.83;;;16.90;;
17528;SDS011;8882;53.192;8.184;2022-10-15T07:33:31;43.40;;;14.97;;
17528;SDS011;8882;53.192;8.184;2022-10-15T07:36:00;42.53;;;16.90;;
17528;SDS011;8882;53.192;8.184;2022-10-15T07:38:33;56.10;;;16.63;;
17528;SDS011;8882;53.192;8.184;2022-10-15T07:41:00;43.23;;;16.17;;
17528;SDS011;8882;53.192;8.184;2022-10-15T07:43:26;42.80;;;14.30;;
17528;SDS011;8882;53.192;8.184;2022-10-15T07:45:52;42.70;;;15.23;;
17528;SDS011;8882;53.192;8.184;2022-10-15T07:48:18;45.60;;;16.93;;
17528;SDS011;8882;53.192;8.184;2022-10-15T07:50:44;35.47;;;14.77;;
17528;SDS011;8882;53.192;8.184;2022-10-15T07:53:09;41.60;;;15.63;;
17528;SDS011;8882;53.192;8.184;2022-10-15T07:55:35;38.07;;;15.93;;
17528;SDS011;8882;53.192;8.184;2022-10-15T07:58:00;43.30;;;15.87;;
17528;SDS011;8882;53.192;8.184;2022-10-15T08:00:27;38.50;;;16.60;;
17528;SDS011;8882;53.192;8.184;2022-10-15T08:02:53;46.13;;;16.20;;
17528;SDS011;8882;53.192;8.184;2022-10-15T08:05:18;36.70;;;14.20;;
17528;SDS011;8882;53.192;8.184;2022-10-15T08:07:44;41.87;;;16.47;;
17528;SDS011;8882;53.192;8.184;2022-10-15T08:10:09;44.97;;;16.30;;
17528;SDS011;8882;53.192;8.184;2022-10-15T08:12:35;40.40;;;16.27;;
17528;SDS011;8882;53.192;8.184;2022-10-15T08:15:01;41.23;;;16.30;;
17528;SDS011;8882;53.192;8.184;2022-10-15T08:17:26;39.37;;;15.13;;
17528;SDS011;8882;53.192;8.184;2022-10-15T08:19:52;40.30;;;15.80;;
17528;SDS011;8882;53.192;8.184;2022-10-15T08:22:17;42.60;;;14.57;;
17528;SDS011;8882;53.192;8.184;2022-10-15T08:24:43;46.37;;;16.03;;
17528;SDS011;8882;53.192;8.184;2022-10-15T08:27:09;33.73;;;15.07;;
17528;SDS011;8882;53.192;8.184;2022-10-15T08:29:34;39.40;;;15.63;;
17528;SDS011;8882;53.192;8.184;2022-10-15T08:31:59;38.47;;;17.03;;
17528;SDS011;8882;53.192;8.184;2022-10-15T08:34:25;40.57;;;16.60;;
17528;SDS011;8882;53.192;8.184;2022-10-15T08:36:50;35.53;;;15.57;;
17528;SDS011;8882;53.192;8.184;2022-10-15T08:39:16;39.23;;;16.57;;
17528;SDS011;8882;53.192;8.184;2022-10-15T08:41:49;39.77;;;16.23;;
17528;SDS011;8882;53.192;8.184;2022-10-15T08:44:21;33.73;;;14.17;;
17528;SDS011;8882;53.192;8.184;2022-10-15T08:47:37;31.07;;;15.00;;
17528;SDS011;8882;53.192;8.184;2022-10-15T08:49:49;40.37;;;16.77;;
17528;SDS011;8882;53.192;8.184;2022-10-15T08:52:19;42.03;;;16.93;;
17528;SDS011;8882;53.192;8.184;2022-10-15T08:54:49;31.93;;;14.53;;
17528;SDS011;8882;53.192;8.184;2022-10-15T09:00:03;38.83;;;17.07;;
17528;SDS011;8882;53.192;8.184;2022-10-15T09:08:26;37.10;;;14.50;;
17528;SDS011;8882;53.192;8.184;2022-10-15T09:11:08;34.70;;;15.60;;
17528;SDS011;8882;53.192;8.184;2022-10-15T09:13:42;38.07;;;16.27;;
17528;SDS011;8882;53.192;8.184;2022-10-15T09:16:14;39.27;;;16.50;;
17528;SDS011;8882;53.192;8.184;2022-10-15T09:18:49;40.57;;;16.57;;
17528;SDS011;8882;53.192;8.184;2022-10-15T09:21:16;38.97;;;16.90;;
17528;SDS011;8882;53.192;8.184;2022-10-15T09:23:43;39.70;;;16.47;;
17528;SDS011;8882;53.192;8.184;2022-10-15T09:26:29;34.03;;;15.30;;
17528;SDS011;8882;53.192;8.184;2022-10-15T09:31:55;46.70;;;17.23;;
17528;SDS011;8882;53.192;8.184;2022-10-15T09:37:11;35.27;;;16.43;;
17528;SDS011;8882;53.192;8.184;2022-10-15T09:44:58;30.23;;;16.30;;
17528;SDS011;8882;53.192;8.184;2022-10-15T09:47:30;37.73;;;17.03;;
17528;SDS011;8882;53.192;8.184;2022-10-15T09:49:58;38.17;;;15.03;;
17528;SDS011;8882;53.192;8.184;2022-10-15T09:52:30;30.90;;;16.07;;
17528;SDS011;8882;53.192;8.184;2022-10-15T09:58:00;38.87;;;17.10;;
17528;SDS011;8882;53.192;8.184;2022-10-15T10:03:27;34.87;;;16.40;;
17528;SDS011;8882;53.192;8.184;2022-10-15T10:05:57;35.67;;;16.17;;
17528;SDS011;8882;53.192;8.184;2022-10-15T10:08:36;33.33;;;16.03;;
17528;SDS011;8882;53.192;8.184;2022-10-15T10:11:05;35.63;;;15.27;;
17528;SDS011;8882;53.192;8.184;2022-10-15T10:13:37;32.77;;;15.73;;
17528;SDS011;8882;53.192;8.184;2022-10-15T10:16:09;30.67;;;14.73;;
17528;SDS011;8882;53.192;8.184;2022-10-15T10:18:36;27.07;;;14.93;;
17528;SDS011;8882;53.192;8.184;2022-10-15T10:21:06;30.13;;;14.03;;
17528;SDS011;8882;53.192;8.184;2022-10-15T10:23:47;28.33;;;14.03;;
17528;SDS011;8882;53.192;8.184;2022-10-15T10:26:12;26.70;;;13.43;;
17528;SDS011;8882;53.192;8.184;2022-10-15T10:28:41;26.37;;;12.67;;
17528;SDS011;8882;53.192;8.184;2022-10-15T10:31:10;25.20;;;12.63;;
17528;SDS011;8882;53.192;8.184;2022-10-15T10:33:42;27.37;;;14.37;;
17528;SDS011;8882;53.192;8.184;2022-10-15T10:36:18;27.17;;;12.97;;
17528;SDS011;8882;53.192;8.184;2022-10-15T10:39:04;26.53;;;13.07;;
17528;SDS011;8882;53.192;8.184;2022-10-15T10:41:47;23.50;;;13.43;;
17528;SDS011;8882;53.192;8.184;2022-10-15T10:44:28;24.57;;;12.50;;
17528;SDS011;8882;53.192;8.184;2022-10-15T10:49:40;20.57;;;11.67;;
17528;SDS011;8882;53.192;8.184;2022-10-15T10:52:17;23.43;;;12.13;;
17528;SDS011;8882;53.192;8.184;2022-10-15T10:54:46;19.67;;;11.07;;
17528;SDS011;8882;53.192;8.184;2022-10-15T10:57:17;23.87;;;11.10;;
17528;SDS011;8882;53.192;8.184;2022-10-15T10:59:50;21.90;;;11.40;;
17528;SDS011;8882;53.192;8.184;2022-10-15T11:02:18;19.97;;;10.53;;
17528;SDS011;8882;53.192;8.184;2022-10-15T11:04:44;21.10;;;11.77;;
17528;SDS011;8882;53.192;8.184;2022-10-15T11:09:59;18.93;;;11.47;;
17528;SDS011;8882;53.192;8.184;2022-10-15T11:18:16;19.13;;;11.57;;
17528;SDS011;8882;53.192;8.184;2022-10-15T11:20:55;17.70;;;11.57;;
17528;SDS011;8882;53.192;8.184;2022-10-15T11:29:11;18.60;;;11.23;;
17528;SDS011;8882;53.192;8.184;2022-10-15T11:31:52;18.57;;;9.53;;
17528;SDS011;8882;53.192;8.184;2022-10-15T11:34:49;15.83;;;10.00;;
17528;SDS011;8882;53.192;8.184;2022-10-15T11:43:20;16.47;;;9.57;;
17528;SDS011;8882;53.192;8.184;2022-10-15T11:45:59;14.63;;;9.23;;
17528;SDS011;8882;53.192;8.184;2022-10-15T11:54:38;14.50;;;8.60;;
17528;SDS011;8882;53.192;8.184;2022-10-15T11:57:11;12.93;;;8.70;;
17528;SDS011;8882;53.192;8.184;2022-10-15T11:59:44;18.67;;;9.20;;
17528;SDS011;8882;53.192;8.184;2022-10-15T12:02:23;13.93;;;8.40;;
17528;SDS011;8882;53.192;8.184;2022-10-15T12:05:04;21.20;;;9.60;;
17528;SDS011;8882;53.192;8.184;2022-10-15T12:07:43;13.80;;;8.20;;
17528;SDS011;8882;53.192;8.184;2022-10-15T12:12:39;16.50;;;9.37;;
17528;SDS011;8882;53.192;8.184;2022-10-15T12:18:07;15.93;;;9.13;;
17528;SDS011;8882;53.192;8.184;2022-10-15T12:20:42;17.67;;;10.13;;
17528;SDS011;8882;53.192;8.184;2022-10-15T12:26:24;17.47;;;9.97;;
17528;SDS011;8882;53.192;8.184;2022-10-15T12:28:51;18.43;;;9.77;;
17528;SDS011;8882;53.192;8.184;2022-10-15T12:31:18;19.37;;;10.97;;
17528;SDS011;8882;53.192;8.184;2022-10-15T12:33:54;17.10;;;10.60;;
17528;SDS011;8882;53.192;8.184;2022-10-15T12:36:24;19.93;;;12.13;;
17528;SDS011;8882;53.192;8.184;2022-10-15T12:41:40;20.73;;;11.33;;
17528;SDS011;8882;53.192;8.184;2022-10-15T12:44:14;22.33;;;12.87;;
17528;SDS011;8882;53.192;8.184;2022-10-15T12:46:51;23.87;;;11.30;;
17528;SDS011;8882;53.192;8.184;2022-10-15T12:51:56;19.17;;;11.33;;
17528;SDS011;8882;53.192;8.184;2022-10-15T12:57:49;22.53;;;11.67;;
17528;SDS011;8882;53.192;8.184;2022-10-15T13:02:50;21.00;;;12.07;;
17528;SDS011;8882;53.192;8.184;2022-10-15T13:05:26;28.90;;;11.67;;
17528;SDS011;8882;53.192;8.184;2022-10-15T13:07:54;21.87;;;11.47;;
17528;SDS011;8882;53.192;8.184;2022-10-15T13:10:23;18.27;;;10.60;;
17528;SDS011;8882;53.192;8.184;2022-10-15T13:12:54;16.60;;;9.63;;
17528;SDS011;8882;53.192;8.184;2022-10-15T13:15:24;21.23;;;11.17;;
17528;SDS011;8882;53.192;8.184;2022-10-15T13:17:51;19.30;;;11.10;;
17528;SDS011;8882;53.192;8.184;2022-10-15T13:20:26;17.90;;;10.07;;
17528;SDS011;8882;53.192;8.184;2022-10-15T13:23:06;20.13;;;10.63;;
17528;SDS011;8882;53.192;8.184;2022-10-15T13:25:33;17.40;;;10.73;;
17528;SDS011;8882;53.192;8.184;2022-10-15T13:27:58;17.80;;;10.90;;
17528;SDS011;8882;53.192;8.184;2022-10-15T13:30:24;17.50;;;11.07;;
17528;SDS011;8882;53.192;8.184;2022-10-15T13:32:50;19.73;;;11.20;;
17528;SDS011;8882;53.192;8.184;2022-10-15T13:35:26;18.53;;;10.63;;
17528;SDS011;8882;53.192;8.184;2022-10-15T13:37:54;16.27;;;10.73;;
17528;SDS011;8882;53.192;8.184;2022-10-15T13:40:25;17.13;;;11.67;;
17528;SDS011;8882;53.192;8.184;2022-10-15T13:43:12;18.73;;;10.77;;
17528;SDS011;8882;53.192;8.184;2022-10-15T13:45:39;19.43;;;10.63;;
17528;SDS011;8882;53.192;8.184;2022-10-15T13:48:20;16.60;;;10.43;;
17528;SDS011;8882;53.192;8.184;2022-10-15T13:50:59;18.23;;;10.80;;
17528;SDS011;8882;53.192;8.184;2022-10-15T13:53:27;15.40;;;11.07;;
17528;SDS011;8882;53.192;8.184;2022-10-15T13:55:55;16.33;;;10.50;;
17528;SDS011;8882;53.192;8.184;2022-10-15T13:58:29;16.67;;;11.27;;
17528;SDS011;8882;53.192;8.184;2022-10-15T14:01:14;15.97;;;10.60;;
17528;SDS011;8882;53.192;8.184;2022-10-15T14:03:50;18.37;;;10.63;;
17528;SDS011;8882;53.192;8.184;2022-10-15T14:06:28;17.20;;;10.53;;
17528;SDS011;8882;53.192;8.184;2022-10-15T14:08:56;18.70;;;10.93;;
17528;SDS011;8882;53.192;8.184;2022-10-15T14:11:24;14.33;;;10.10;;
17528;SDS011;8882;53.192;8.184;2022-10-15T14:13:51;13.93;;;10.37;;
17528;SDS011;8882;53.192;8.184;2022-10-15T14:16:19;17.80;;;11.13;;
17528;SDS011;8882;53.192;8.184;2022-10-15T14:21:31;19.27;;;11.23;;
17528;SDS011;8882;53.192;8.184;2022-10-15T14:24:11;17.37;;;11.10;;
17528;SDS011;8882;53.192;8.184;2022-10-15T14:26:42;18.20;;;10.50;;
17528;SDS011;8882;53.192;8.184;2022-10-15T14:31:46;16.07;;;10.83;;
17528;SDS011;8882;53.192;8.184;2022-10-15T14:37:00;18.70;;;11.77;;
17528;SDS011;8882;53.192;8.184;2022-10-15T14:39:34;21.30;;;12.63;;
17528;SDS011;8882;53.192;8.184;2022-10-15T14:42:02;22.40;;;12.50;;
17528;SDS011;8882;53.192;8.184;2022-10-15T14:44:39;18.23;;;11.90;;
17528;SDS011;8882;53.192;8.184;2022-10-15T14:47:20;18.93;;;11.70;;
17528;SDS011;8882;53.192;8.184;2022-10-15T14:49:49;19.40;;;12.40;;
17528;SDS011;8882;53.192;8.184;2022-10-15T14:52:19;24.13;;;14.13;;
17528;SDS011;8882;53.192;8.184;2022-10-15T14:54:47;21.00;;;12.30;;
17528;SDS011;8882;53.192;8.184;2022-10-15T14:57:28;21.53;;;12.63;;
17528;SDS011;8882;53.192;8.184;2022-10-15T14:59:58;23.17;;;13.40;;
17528;SDS011;8882;53.192;8.184;2022-10-15T15:02:25;26.27;;;13.70;;
17528;SDS011;8882;53.192;8.184;2022-10-15T15:05:05;20.33;;;12.00;;
17528;SDS011;8882;53.192;8.184;2022-10-15T15:07:37;26.17;;;13.43;;
17528;SDS011;8882;53.192;8.184;2022-10-15T15:10:04;20.73;;;12.97;;
17528;SDS011;8882;53.192;8.184;2022-10-15T15:12:31;23.00;;;12.23;;
17528;SDS011;8882;53.192;8.184;2022-10-15T15:14:57;22.43;;;13.73;;
17528;SDS011;8882;53.192;8.184;2022-10-15T15:17:24;27.77;;;13.60;;
17528;SDS011;8882;53.192;8.184;2022-10-15T15:19:51;22.47;;;13.40;;
17528;SDS011;8882;53.192;8.184;2022-10-15T15:22:32;22.50;;;13.17;;
17528;SDS011;8882;53.192;8.184;2022-10-15T15:24:59;22.33;;;13.43;;
17528;SDS011;8882;53.192;8.184;2022-10-15T15:27:29;18.90;;;12.07;;
17528;SDS011;8882;53.192;8.184;2022-10-15T15:30:01;23.60;;;13.33;;
17528;SDS011;8882;53.192;8.184;2022-10-15T15:32:30;21.30;;;11.17;;
17528;SDS011;8882;53.192;8.184;2022-10-15T15:34:56;21.50;;;11.47;;
17528;SDS011;8882;53.192;8.184;2022-10-15T15:37:22;18.73;;;10.83;;
17528;SDS011;8882;53.192;8.184;2022-10-15T15:39:49;20.60;;;11.73;;
17528;SDS011;8882;53.192;8.184;2022-10-15T15:42:16;16.77;;;10.20;;
17528;SDS011;8882;53.192;8.184;2022-10-15T15:44:43;18.37;;;10.23;;
17528;SDS011;8882;53.192;8.184;2022-10-15T15:47:09;18.83;;;10.17;;
17528;SDS011;8882;53.192;8.184;2022-10-15T15:49:35;15.80;;;9.67;;
17528;SDS011;8882;53.192;8.184;2022-10-15T15:52:02;17.73;;;10.03;;
17528;SDS011;8882;53.192;8.184;2022-10-15T15:54:28;20.40;;;11.13;;
17528;SDS011;8882;53.192;8.184;2022-10-15T15:56:54;19.93;;;10.90;;
17528;SDS011;8882;53.192;8.184;2022-10-15T15:59:20;14.27;;;8.87;;
17528;SDS011;8882;53.192;8.184;2022-10-15T16:01:45;17.40;;;9.77;;
17528;SDS011;8882;53.192;8.184;2022-10-15T16:04:11;16.03;;;10.20;;
17528;SDS011;8882;53.192;8.184;2022-10-15T16:06:37;15.67;;;8.77;;
17528;SDS011;8882;53.192;8.184;2022-10-15T16:09:03;16.80;;;9.10;;
17528;SDS011;8882;53.192;8.184;2022-10-15T16:11:30;14.73;;;8.27;;
17528;SDS011;8882;53.192;8.184;2022-10-15T16:14:01;12.13;;;7.83;;
17528;SDS011;8882;53.192;8.184;2022-10-15T16:16:26;11.77;;;7.67;;
17528;SDS011;8882;53.192;8.184;2022-10-15T16:18:52;10.70;;;6.77;;
17528;SDS011;8882;53.192;8.184;2022-10-15T16:21:21;17.60;;;9.30;;
17528;SDS011;8882;53.192;8.184;2022-10-15T16:23:47;13.50;;;8.67;;
17528;SDS011;8882;53.192;8.184;2022-10-15T16:26:13;12.00;;;7.67;;
17528;SDS011;8882;53.192;8.184;2022-10-15T16:28:39;11.43;;;7.33;;
17528;SDS011;8882;53.192;8.184;2022-10-15T16:31:14;11.87;;;7.03;;
17528;SDS011;8882;53.192;8.184;2022-10-15T16:33:41;10.73;;;7.43;;
17528;SDS011;8882;53.192;8.184;2022-10-15T16:36:07;10.10;;;7.17;;
17528;SDS011;8882;53.192;8.184;2022-10-15T16:38:32;9.10;;;6.53;;
17528;SDS011;8882;53.192;8.184;2022-10-15T16:40:58;12.47;;;7.63;;
17528;SDS011;8882;53.192;8.184;2022-10-15T16:43:24;11.77;;;7.87;;
17528;SDS011;8882;53.192;8.184;2022-10-15T16:45:54;9.53;;;7.00;;
17528;SDS011;8882;53.192;8.184;2022-10-15T16:48:20;10.60;;;7.80;;
17528;SDS011;8882;53.192;8.184;2022-10-15T16:50:46;13.20;;;7.50;;
17528;SDS011;8882;53.192;8.184;2022-10-15T16:53:12;12.37;;;7.73;;
17528;SDS011;8882;53.192;8.184;2022-10-15T16:55:37;11.57;;;7.73;;
17528;SDS011;8882;53.192;8.184;2022-10-15T16:58:03;11.63;;;7.47;;
17528;SDS011;8882;53.192;8.184;2022-10-15T17:00:28;10.07;;;7.00;;
17528;SDS011;8882;53.192;8.184;2022-10-15T17:02:54;8.37;;;6.43;;
17528;SDS011;8882;53.192;8.184;2022-10-15T17:05:19;16.43;;;10.67;;
17528;SDS011;8882;53.192;8.184;2022-10-15T17:07:45;16.27;;;10.50;;
17528;SDS011;8882;53.192;8.184;2022-10-15T17:10:10;15.63;;;9.63;;
17528;SDS011;8882;53.192;8.184;2022-10-15T17:12:36;12.37;;;7.67;;
17528;SDS011;8882;53.192;8.184;2022-10-15T17:15:01;10.77;;;7.93;;
17528;SDS011;8882;53.192;8.184;2022-10-15T17:17:27;8.17;;;6.43;;
17528;SDS011;8882;53.192;8.184;2022-10-15T17:19:52;10.20;;;7.03;;
17528;SDS011;8882;53.192;8.184;2022-10-15T17:22:18;9.27;;;6.13;;
17528;SDS011;8882;53.192;8.184;2022-10-15T17:24:45;7.97;;;6.27;;
17528;SDS011;8882;53.192;8.184;2022-10-15T17:27:12;8.80;;;6.53;;
17528;SDS011;8882;53.192;8.184;2022-10-15T17:29:38;8.67;;;6.50;;
17528;SDS011;8882;53.192;8.184;2022-10-15T17:32:03;10.77;;;7.07;;
17528;SDS011;8882;53.192;8.184;2022-10-15T17:34:29;10.83;;;7.00;;
17528;SDS011;8882;53.192;8.184;2022-10-15T17:36:54;9.33;;;6.80;;
17528;SDS011;8882;53.192;8.184;2022-10-15T17:39:20;9.60;;;7.10;;
17528;SDS011;8882;53.192;8.184;2022-10-15T17:41:49;8.37;;;6.47;;
17528;SDS011;8882;53.192;8.184;2022-10-15T17:44:15;9.07;;;6.43;;
17528;SDS011;8882;53.192;8.184;2022-10-15T17:46:41;8.03;;;6.40;;
17528;SDS011;8882;53.192;8.184;2022-10-15T17:49:07;10.30;;;6.50;;
17528;SDS011;8882;53.192;8.184;2022-10-15T17:51:35;7.60;;;6.23;;
17528;SDS011;8882;53.192;8.184;2022-10-15T17:54:00;8.20;;;6.50;;
17528;SDS011;8882;53.192;8.184;2022-10-15T17:56:30;7.73;;;5.90;;
17528;SDS011;8882;53.192;8.184;2022-10-15T17:58:58;9.10;;;6.73;;
17528;SDS011;8882;53.192;8.184;2022-10-15T18:01:26;8.47;;;5.87;;
17528;SDS011;8882;53.192;8.184;2022-10-15T18:03:59;10.37;;;6.47;;
17528;SDS011;8882;53.192;8.184;2022-10-15T18:06:25;10.20;;;6.87;;
17528;SDS011;8882;53.192;8.184;2022-10-15T18:08:52;8.80;;;6.90;;
17528;SDS011;8882;53.192;8.184;2022-10-15T18:11:19;7.80;;;6.33;;
17528;SDS011;8882;53.192;8.184;2022-10-15T18:13:48;8.30;;;6.07;;
17528;SDS011;8882;53.192;8.184;2022-10-15T18:16:14;7.73;;;6.07;;
17528;SDS011;8882;53.192;8.184;2022-10-15T18:18:40;10.63;;;6.33;;
17528;SDS011;8882;53.192;8.184;2022-10-15T18:21:06;8.13;;;5.70;;
17528;SDS011;8882;53.192;8.184;2022-10-15T18:23:34;9.87;;;7.47;;
17528;SDS011;8882;53.192;8.184;2022-10-15T18:26:08;9.57;;;6.03;;
17528;SDS011;8882;53.192;8.184;2022-10-15T18:28:43;7.83;;;6.10;;
17528;SDS011;8882;53.192;8.184;2022-10-15T18:31:10;7.63;;;6.20;;
17528;SDS011;8882;53.192;8.184;2022-10-15T18:33:36;8.33;;;5.60;;
17528;SDS011;8882;53.192;8.184;2022-10-15T18:36:06;7.57;;;4.60;;
17528;SDS011;8882;53.192;8.184;2022-10-15T18:38:37;10.37;;;7.30;;
17528;SDS011;8882;53.192;8.184;2022-10-15T18:41:11;14.37;;;10.80;;
17528;SDS011;8882;53.192;8.184;2022-10-15T18:43:41;7.33;;;5.50;;
17528;SDS011;8882;53.192;8.184;2022-10-15T18:46:07;5.83;;;4.77;;
17528;SDS011;8882;53.192;8.184;2022-10-15T18:48:33;7.37;;;5.10;;
17528;SDS011;8882;53.192;8.184;2022-10-15T18:51:03;6.80;;;5.33;;
17528;SDS011;8882;53.192;8.184;2022-10-15T18:53:30;5.10;;;4.17;;
17528;SDS011;8882;53.192;8.184;2022-10-15T18:55:55;7.33;;;5.27;;
17528;SDS011;8882;53.192;8.184;2022-10-15T18:58:21;9.67;;;5.13;;
17528;SDS011;8882;53.192;8.184;2022-10-15T19:00:46;11.80;;;5.60;;
17528;SDS011;8882;53.192;8.184;2022-10-15T19:03:12;10.60;;;5.90;;
17528;SDS011;8882;53.192;8.184;2022-10-15T19:05:37;8.60;;;5.63;;
17528;SDS011;8882;53.192;8.184;2022-10-15T19:08:03;9.57;;;5.37;;
17528;SDS011;8882;53.192;8.184;2022-10-15T19:10:30;6.10;;;4.53;;
17528;SDS011;8882;53.192;8.184;2022-10-15T19:12:56;6.30;;;5.57;;
17528;SDS011;8882;53.192;8.184;2022-10-15T19:15:21;6.70;;;5.00;;
17528;SDS011;8882;53.192;8.184;2022-10-15T19:17:47;5.73;;;4.97;;
17528;SDS011;8882;53.192;8.184;2022-10-15T19:20:12;4.97;;;4.47;;
17528;SDS011;8882;53.192;8.184;2022-10-15T19:22:38;5.83;;;4.17;;
17528;SDS011;8882;53.192;8.184;2022-10-15T19:25:03;6.60;;;4.63;;
17528;SDS011;8882;53.192;8.184;2022-10-15T19:27:30;4.77;;;3.83;;
17528;SDS011;8882;53.192;8.184;2022-10-15T19:29:56;7.27;;;4.60;;
17528;SDS011;8882;53.192;8.184;2022-10-15T19:32:21;6.83;;;3.97;;
17528;SDS011;8882;53.192;8.184;2022-10-15T19:34:47;5.27;;;3.90;;
17528;SDS011;8882;53.192;8.184;2022-10-15T19:37:12;7.77;;;4.27;;
17528;SDS011;8882;53.192;8.184;2022-10-15T19:39:38;5.83;;;4.07;;
17528;SDS011;8882;53.192;8.184;2022-10-15T19:42:05;6.27;;;4.00;;
17528;SDS011;8882;53.192;8.184;2022-10-15T19:44:30;8.20;;;4.77;;
17528;SDS011;8882;53.192;8.184;2022-10-15T19:46:56;5.13;;;4.17;;
17528;SDS011;8882;53.192;8.184;2022-10-15T19:49:21;6.20;;;4.93;;
17528;SDS011;8882;53.192;8.184;2022-10-15T19:51:48;7.00;;;5.00;;
17528;SDS011;8882;53.192;8.184;2022-10-15T19:54:14;6.83;;;5.23;;
17528;SDS011;8882;53.192;8.184;2022-10-15T19:56:40;8.07;;;6.03;;
17528;SDS011;8882;53.192;8.184;2022-10-15T19:59:06;9.83;;;6.63;;
17528;SDS011;8882;53.192;8.184;2022-10-15T20:01:32;8.73;;;7.10;;
17528;SDS011;8882;53.192;8.184;2022-10-15T20:03:58;6.77;;;5.33;;
17528;SDS011;8882;53.192;8.184;2022-10-15T20:06:27;5.10;;;4.37;;
17528;SDS011;8882;53.192;8.184;2022-10-15T20:08:53;5.47;;;4.20;;
17528;SDS011;8882;53.192;8.184;2022-10-15T20:11:19;7.37;;;5.33;;
17528;SDS011;8882;53.192;8.184;2022-10-15T20:13:45;6.73;;;4.73;;
17528;SDS011;8882;53.192;8.184;2022-10-15T20:16:11;7.53;;;5.13;;
17528;SDS011;8882;53.192;8.184;2022-10-15T20:18:39;7.63;;;4.17;;
17528;SDS011;8882;53.192;8.184;2022-10-15T20:21:09;7.70;;;5.50;;
17528;SDS011;8882;53.192;8.184;2022-10-15T20:23:36;5.80;;;4.63;;
17528;SDS011;8882;53.192;8.184;2022-10-15T20:26:04;4.07;;;3.40;;
17528;SDS011;8882;53.192;8.184;2022-10-15T20:28:31;5.03;;;3.53;;
17528;SDS011;8882;53.192;8.184;2022-10-15T20:31:02;7.60;;;5.13;;
17528;SDS011;8882;53.192;8.184;2022-10-15T20:33:36;6.33;;;4.10;;
17528;SDS011;8882;53.192;8.184;2022-10-15T20:36:06;9.40;;;4.07;;
17528;SDS011;8882;53.192;8.184;2022-10-15T20:38:33;6.40;;;4.00;;
17528;SDS011;8882;53.192;8.184;2022-10-15T20:44:05;9.43;;;4.83;;
17528;SDS011;8882;53.192;8.184;2022-10-15T20:46:36;6.60;;;4.07;;
17528;SDS011;8882;53.192;8.184;2022-10-15T20:49:08;9.93;;;5.60;;
17528;SDS011;8882;53.192;8.184;2022-10-15T20:51:39;7.60;;;4.93;;
17528;SDS011;8882;53.192;8.184;2022-10-15T20:54:06;5.83;;;4.43;;
17528;SDS011;8882;53.192;8.184;2022-10-15T20:56:33;7.43;;;4.67;;
17528;SDS011;8882;53.192;8.184;2022-10-15T20:58:58;14.17;;;7.63;;
